createdAt,value
2022-11-21T00:03:02.257Z,8.13
2022-11-21T00:09:04.191Z,9.52
2022-11-21T00:15:06.787Z,10.70
2022-11-21T00:21:12.509Z,10.38
2022-11-21T00:27:14.456Z,9.82
2022-11-21T00:33:16.308Z,10.63
2022-11-21T00:39:18.161Z,10.55
2022-11-21T00:45:24.273Z,10.00
2022-11-21T00:51:26.779Z,11.00
2022-11-21T00:57:28.778Z,11.52
2022-11-21T01:03:32.976Z,12.55
2022-11-21T01:09:34.863Z,12.25
2022-11-21T01:15:36.796Z,11.38
2022-11-21T01:21:38.723Z,10.82
2022-11-21T01:27:40.603Z,10.65
2022-11-21T01:33:42.828Z,9.95
2022-11-21T01:39:44.920Z,10.38
2022-11-21T01:46:09.700Z,11.18
2022-11-21T01:52:27.022Z,11.77
2022-11-21T01:58:31.163Z,11.38
2022-11-21T02:04:35.165Z,12.10
2022-11-21T02:10:38.627Z,10.90
2022-11-21T02:16:41.026Z,11.65
2022-11-21T02:22:54.938Z,12.07
2022-11-21T02:28:57.893Z,10.90
2022-11-21T02:34:59.871Z,11.88
2022-11-21T02:41:14.848Z,11.65
2022-11-21T02:47:16.812Z,11.45
2022-11-21T02:53:19.647Z,11.05
2022-11-21T02:59:21.576Z,11.77
2022-11-21T03:05:23.755Z,11.43
2022-11-21T03:11:25.619Z,12.18
2022-11-21T03:17:27.517Z,11.48
2022-11-21T03:23:29.396Z,11.07
2022-11-21T03:29:31.389Z,11.95
2022-11-21T03:35:33.345Z,11.45
2022-11-21T03:41:35.450Z,13.02
2022-11-21T03:47:37.320Z,11.65
2022-11-21T03:53:39.270Z,12.27
2022-11-21T03:59:41.166Z,11.60
2022-11-21T04:05:44.927Z,12.57
2022-11-21T04:11:46.819Z,12.70
2022-11-21T04:17:48.695Z,12.40
2022-11-21T04:23:50.574Z,13.30
2022-11-21T04:29:52.496Z,12.65
2022-11-21T04:35:54.375Z,12.00
2022-11-21T04:41:56.269Z,12.30
2022-11-21T04:47:58.212Z,12.15
2022-11-21T04:54:00.170Z,12.65
2022-11-21T05:00:02.092Z,11.80
2022-11-21T05:06:04.207Z,11.63
2022-11-21T05:12:25.522Z,11.43
2022-11-21T05:18:27.424Z,11.73
2022-11-21T05:24:29.642Z,11.05
2022-11-21T05:30:31.828Z,10.80
2022-11-21T05:36:33.747Z,11.95
2022-11-21T05:42:58.191Z,9.10
2022-11-21T05:49:00.111Z,10.10
2022-11-21T05:55:02.033Z,11.02
2022-11-21T06:01:05.464Z,11.57
2022-11-21T06:07:07.389Z,11.23
2022-11-21T06:13:22.157Z,10.38
2022-11-21T06:19:24.232Z,10.45
2022-11-21T06:25:26.155Z,10.35
2022-11-21T06:31:28.074Z,10.52
2022-11-21T06:37:30.891Z,10.63
2022-11-21T06:43:32.913Z,11.23
2022-11-21T06:49:34.772Z,10.82
2022-11-21T06:55:36.719Z,12.10
2022-11-21T07:01:38.655Z,13.02
2022-11-21T07:07:40.699Z,12.10
2022-11-21T07:13:43.795Z,13.98
2022-11-21T07:19:45.713Z,12.40
2022-11-21T07:25:48.083Z,11.25
2022-11-21T07:31:49.937Z,8.98
2022-11-21T07:37:52.083Z,8.20
2022-11-21T07:43:53.968Z,8.18
2022-11-21T07:49:55.931Z,9.88
2022-11-21T07:55:59.853Z,8.77
2022-11-21T08:02:01.812Z,9.70
2022-11-21T08:08:04.111Z,9.82
2022-11-21T08:14:05.963Z,8.90
2022-11-21T08:20:08.790Z,9.25
2022-11-21T08:26:10.752Z,10.85
2022-11-21T08:32:12.636Z,15.55
2022-11-21T08:38:14.592Z,9.15
2022-11-21T08:44:16.598Z,17.90
2022-11-21T08:50:18.661Z,11.23
2022-11-21T08:56:20.828Z,9.63
2022-11-21T09:02:22.795Z,8.75
2022-11-21T09:08:24.795Z,9.57
2022-11-21T09:14:45.151Z,10.65
2022-11-21T09:20:47.041Z,9.57
2022-11-21T09:26:49.026Z,9.18
2022-11-21T09:32:50.936Z,8.40
2022-11-21T09:38:53.266Z,7.88
2022-11-21T09:45:09.568Z,8.07
2022-11-21T09:51:15.058Z,7.50
2022-11-21T09:57:21.741Z,7.60
2022-11-21T10:03:27.249Z,5.37
2022-11-21T10:09:50.772Z,6.70
2022-11-21T10:16:03.300Z,6.55
2022-11-21T10:22:40.952Z,6.28
2022-11-21T10:28:52.438Z,6.07
2022-11-21T10:35:24.133Z,7.18
2022-11-21T10:41:47.426Z,6.70
2022-11-21T10:47:51.656Z,7.13
2022-11-21T10:54:30.427Z,7.00
2022-11-21T11:00:32.694Z,6.35
2022-11-21T11:06:34.984Z,6.18
2022-11-21T11:12:55.292Z,6.00
2022-11-21T11:19:15.692Z,5.95
2022-11-21T11:25:17.587Z,5.53
2022-11-21T11:31:19.762Z,4.25
2022-11-21T11:37:41.630Z,5.00
2022-11-21T11:44:34.132Z,5.25
2022-11-21T11:50:46.209Z,5.00
2022-11-21T11:56:49.013Z,4.97
2022-11-21T12:03:16.975Z,4.57
2022-11-21T12:09:35.759Z,4.65
2022-11-21T12:15:49.574Z,5.32
2022-11-21T12:21:51.444Z,5.25
2022-11-21T12:27:56.196Z,5.85
2022-11-21T12:34:14.167Z,5.57
2022-11-21T12:40:35.499Z,5.22
2022-11-21T12:47:03.763Z,5.78
2022-11-21T12:53:40.611Z,6.10
2022-11-21T12:59:54.195Z,5.97
2022-11-21T13:05:58.609Z,6.10
2022-11-21T13:12:11.599Z,5.80
2022-11-21T13:18:23.135Z,5.55
2022-11-21T13:24:56.425Z,6.43
2022-11-21T13:31:01.059Z,6.47
2022-11-21T13:37:03.839Z,8.30
2022-11-21T13:43:35.523Z,7.53
2022-11-21T13:49:43.575Z,8.65
2022-11-21T13:56:06.181Z,9.23
2022-11-21T14:02:29.323Z,9.95
2022-11-21T14:08:31.674Z,9.70
2022-11-21T14:14:43.738Z,9.02
2022-11-21T14:20:56.501Z,9.57
2022-11-21T14:26:58.807Z,9.65
2022-11-21T14:33:35.544Z,8.57
2022-11-21T14:39:44.357Z,9.15
2022-11-21T14:45:50.256Z,8.95
2022-11-21T14:52:03.315Z,7.60
2022-11-21T14:58:06.505Z,11.57
2022-11-21T15:20:11.945Z,9.50
2022-11-21T15:26:35.671Z,9.60
2022-11-21T15:33:03.898Z,9.88
2022-11-21T15:39:07.101Z,10.40
2022-11-21T15:52:06.034Z,10.02
2022-11-21T15:57:12.888Z,9.45
2022-11-21T15:58:05.619Z,10.57
2022-11-21T16:04:10.861Z,11.43
2022-11-21T16:10:19.934Z,12.48
2022-11-21T16:16:28.989Z,11.23
2022-11-21T16:22:31.717Z,11.35
2022-11-21T16:28:43.468Z,13.32
2022-11-21T16:34:45.552Z,13.38
2022-11-21T16:41:04.420Z,13.95
2022-11-21T16:47:08.616Z,15.00
2022-11-21T16:53:10.655Z,15.02
2022-11-21T16:59:12.545Z,15.05
2022-11-21T17:05:14.466Z,15.70
2022-11-21T17:11:28.171Z,15.43
2022-11-21T17:17:29.972Z,15.00
2022-11-21T17:23:32.896Z,15.60
2022-11-21T17:29:34.771Z,15.90
2022-11-21T17:35:36.627Z,15.65
2022-11-21T17:41:39.663Z,15.68
2022-11-21T17:47:42.252Z,15.48
2022-11-21T17:53:47.146Z,14.57
2022-11-21T17:59:49.140Z,14.95
2022-11-21T18:06:07.515Z,15.25
2022-11-21T18:12:09.578Z,14.77
2022-11-21T18:18:11.520Z,14.77
2022-11-21T18:24:13.551Z,16.00
2022-11-21T18:30:15.503Z,16.73
2022-11-21T18:36:18.247Z,16.35
2022-11-21T18:42:20.081Z,17.27
2022-11-21T18:48:23.860Z,16.90
2022-11-21T18:54:25.746Z,15.85
2022-11-21T19:00:27.671Z,16.40
2022-11-21T19:06:30.108Z,16.98
2022-11-21T19:12:37.888Z,16.10
2022-11-21T19:18:44.393Z,16.17
2022-11-21T19:24:48.410Z,16.75
2022-11-21T19:30:50.230Z,16.90
2022-11-21T19:36:53.041Z,15.82
2022-11-21T19:42:54.887Z,15.98
2022-11-21T19:48:57.533Z,18.38
2022-11-21T19:54:59.384Z,16.73
2022-11-21T20:01:12.766Z,17.52
2022-11-21T20:07:14.795Z,18.00
2022-11-21T20:13:16.710Z,19.45
2022-11-21T20:19:20.587Z,20.23
2022-11-21T20:25:22.506Z,18.42
2022-11-21T20:31:29.472Z,19.30
2022-11-21T20:37:31.287Z,18.92
2022-11-21T20:44:14.514Z,17.27
2022-11-21T20:49:55.011Z,17.00
2022-11-21T20:56:10.205Z,17.05
2022-11-21T21:02:14.209Z,16.45
2022-11-21T21:08:16.344Z,17.40
2022-11-21T21:16:57.265Z,15.95
2022-11-21T21:21:17.036Z,16.58
2022-11-21T21:27:26.493Z,17.25
2022-11-21T21:33:29.418Z,17.23
2022-11-21T21:39:33.080Z,16.35
2022-11-21T21:45:34.928Z,15.32
2022-11-21T21:51:37.506Z,15.93
2022-11-21T21:57:44.943Z,15.63
2022-11-21T22:03:53.921Z,15.80
2022-11-21T22:09:57.875Z,17.05
2022-11-21T22:16:30.051Z,18.25
2022-11-21T22:22:46.917Z,16.55
2022-11-21T22:28:50.215Z,16.85
2022-11-21T22:34:52.075Z,17.08
2022-11-21T22:40:54.167Z,16.58
2022-11-21T22:46:56.046Z,15.23
2022-11-21T22:52:57.874Z,16.45
2022-11-21T22:58:59.751Z,16.15
2022-11-21T23:05:02.049Z,15.68
2022-11-21T23:11:05.328Z,15.68
2022-11-21T23:17:07.159Z,16.23
2022-11-21T23:23:08.981Z,16.92
2022-11-21T23:29:10.881Z,16.20
2022-11-21T23:35:12.769Z,17.67
2022-11-21T23:41:14.608Z,16.35
2022-11-21T23:47:16.448Z,15.32
2022-11-21T23:53:19.035Z,15.60
2022-11-21T23:59:20.860Z,16.73
